Llanes en Asturias

latitud = 43° 25' 13''N | longitud = 004° 44' 53''W
10 metros sobre el nivel del mar | datos mensuales

Fecha, hora, temperatura, viento dirección y velocidad, humedad y presión.

  • 23-04-2018 10:00:00 | 13.40°C | Calma |0.00 km/h | 91.00% | 1020.90 hPa
  • 23-04-2018 09:00:00 | 13.10°C | Noroeste |8.00 km/h | 91.00% | 1020.50 hPa
  • 23-04-2018 08:00:00 | 13.30°C | Noroeste |3.00 km/h | 90.00% | 1019.80 hPa
  • 23-04-2018 07:00:00 | 13.40°C | Oeste |4.00 km/h | 90.00% | 1019.30 hPa
  • 23-04-2018 06:00:00 | 13.40°C | Noroeste |8.00 km/h | 90.00% | 1018.80 hPa
  • 23-04-2018 05:00:00 | 13.70°C | Norte |3.00 km/h | 90.00% | 1018.60 hPa
  • 23-04-2018 04:00:00 | 13.80°C | Calma |0.00 km/h | 90.00% | 1018.50 hPa
  • 23-04-2018 03:00:00 | 13.80°C | Nordeste |3.00 km/h | 90.00% | 1018.20 hPa
  • 23-04-2018 02:00:00 | 13.80°C | Nordeste |3.00 km/h | 90.00% | 1018.30 hPa
  • 23-04-2018 01:00:00 | 13.80°C | Noroeste |7.00 km/h | 89.00% | 1019.00 hPa
  • 23-04-2018 00:00:00 | 13.80°C | Noroeste |7.00 km/h | 89.00% | 1019.00 hPa
  • 22-04-2018 23:00:00 | 14.00°C | Noroeste |4.00 km/h | 88.00% | 1018.70 hPa
  • 22-04-2018 22:00:00 | 14.00°C | Norte |3.00 km/h | 88.00% | 1018.40 hPa
  • 22-04-2018 21:00:00 | 14.10°C | Noroeste |7.00 km/h | 87.00% | 1017.30 hPa
  • 22-04-2018 20:00:00 | 14.30°C | Noroeste |5.00 km/h | 85.00% | 1016.40 hPa
  • 22-04-2018 19:00:00 | 14.80°C | Noroeste |8.00 km/h | 83.00% | 1016.00 hPa
  • 22-04-2018 18:00:00 | 15.30°C | Noroeste |14.00 km/h | 80.00% | 1015.70 hPa
  • 22-04-2018 17:00:00 | 17.90°C | Noroeste |12.00 km/h | 73.00% | 1015.20 hPa
  • 22-04-2018 16:00:00 | 17.50°C | Noroeste |6.00 km/h | 75.00% | 1015.10 hPa
  • 22-04-2018 15:00:00 | 17.70°C | Este |15.00 km/h | 72.00% | 1014.60 hPa
  • 22-04-2018 14:00:00 | 17.30°C | Este |12.00 km/h | 75.00% | 1014.50 hPa
  • 22-04-2018 13:00:00 | 17.20°C | Este |17.00 km/h | 72.00% | 1015.00 hPa
  • 22-04-2018 12:00:00 | 17.50°C | Este |12.00 km/h | 70.00% | 1015.60 hPa
  • 22-04-2018 11:00:00 | 16.80°C | Sudeste |5.00 km/h | 73.00% | 1015.90 hPa